sensor_id;sensor_type;location;lat;lon;timestamp;temperature;humidity
3566;DHT22;1797;51.844;7.684;2023-02-01T00:02:10;4.50;99.90
3566;DHT22;1797;51.844;7.684;2023-02-01T00:04:35;4.50;99.90
3566;DHT22;1797;51.844;7.684;2023-02-01T00:07:01;4.50;99.90
3566;DHT22;1797;51.844;7.684;2023-02-01T00:09:26;4.50;99.90
3566;DHT22;1797;51.844;7.684;2023-02-01T00:11:52;4.50;99.90
3566;DHT22;1797;51.844;7.684;2023-02-01T00:14:18;4.50;99.90
3566;DHT22;1797;51.844;7.684;2023-02-01T00:16:43;4.50;99.90
3566;DHT22;1797;51.844;7.684;2023-02-01T00:19:14;4.50;99.90
3566;DHT22;1797;51.844;7.684;2023-02-01T00:21:40;4.50;99.90
3566;DHT22;1797;51.844;7.684;2023-02-01T00:24:07;4.60;99.90
3566;DHT22;1797;51.844;7.684;2023-02-01T00:26:43;4.60;99.90
3566;DHT22;1797;51.844;7.684;2023-02-01T00:29:13;4.60;99.90
3566;DHT22;1797;51.844;7.684;2023-02-01T00:31:39;4.60;99.90
3566;DHT22;1797;51.844;7.684;2023-02-01T00:34:06;4.60;99.90
3566;DHT22;1797;51.844;7.684;2023-02-01T00:36:32;4.70;99.90
3566;DHT22;1797;51.844;7.684;2023-02-01T00:38:58;4.70;99.90
3566;DHT22;1797;51.844;7.684;2023-02-01T00:41:24;4.70;99.90
3566;DHT22;1797;51.844;7.684;2023-02-01T00:43:50;4.70;99.90
3566;DHT22;1797;51.844;7.684;2023-02-01T00:46:18;4.70;99.90
3566;DHT22;1797;51.844;7.684;2023-02-01T00:48:44;4.70;99.90
3566;DHT22;1797;51.844;7.684;2023-02-01T00:51:12;4.80;99.90
3566;DHT22;1797;51.844;7.684;2023-02-01T00:53:39;4.80;99.90
3566;DHT22;1797;51.844;7.684;2023-02-01T00:56:05;4.90;99.90
3566;DHT22;1797;51.844;7.684;2023-02-01T00:58:32;4.90;99.90
3566;DHT22;1797;51.844;7.684;2023-02-01T01:03:26;5.00;99.90
3566;DHT22;1797;51.844;7.684;2023-02-01T01:05:57;5.00;99.90
3566;DHT22;1797;51.844;7.684;2023-02-01T01:08:23;5.00;99.90
3566;DHT22;1797;51.844;7.684;2023-02-01T01:10:48;5.00;99.90
3566;DHT22;1797;51.844;7.684;2023-02-01T01:13:15;5.20;99.90
3566;DHT22;1797;51.844;7.684;2023-02-01T01:15:41;5.00;99.90
3566;DHT22;1797;51.844;7.684;2023-02-01T01:18:07;5.00;99.90
3566;DHT22;1797;51.844;7.684;2023-02-01T01:20:37;5.10;99.90
3566;DHT22;1797;51.844;7.684;2023-02-01T01:23:04;5.00;99.90
3566;DHT22;1797;51.844;7.684;2023-02-01T01:25:30;5.10;99.90
3566;DHT22;1797;51.844;7.684;2023-02-01T01:27:56;5.00;99.90
3566;DHT22;1797;51.844;7.684;2023-02-01T01:30:21;5.00;99.90
3566;DHT22;1797;51.844;7.684;2023-02-01T01:32:47;5.00;99.90
3566;DHT22;1797;51.844;7.684;2023-02-01T01:35:13;5.00;99.90
3566;DHT22;1797;51.844;7.684;2023-02-01T01:37:38;5.00;99.90
3566;DHT22;1797;51.844;7.684;2023-02-01T01:40:06;5.00;99.90
3566;DHT22;1797;51.844;7.684;2023-02-01T01:42:42;5.00;99.90
3566;DHT22;1797;51.844;7.684;2023-02-01T01:48:27;5.10;99.90
3566;DHT22;1797;51.844;7.684;2023-02-01T01:51:03;5.10;99.90
3566;DHT22;1797;51.844;7.684;2023-02-01T01:53:58;5.20;99.90
3566;DHT22;1797;51.844;7.684;2023-02-01T01:56:26;5.20;99.90
3566;DHT22;1797;51.844;7.684;2023-02-01T01:58:54;5.20;99.90
3566;DHT22;1797;51.844;7.684;2023-02-01T02:01:20;5.20;99.90
3566;DHT22;1797;51.844;7.684;2023-02-01T02:03:46;5.20;99.90
3566;DHT22;1797;51.844;7.684;2023-02-01T02:09:04;5.30;99.90
3566;DHT22;1797;51.844;7.684;2023-02-01T02:11:30;5.30;99.90
3566;DHT22;1797;51.844;7.684;2023-02-01T02:13:57;5.40;99.90
3566;DHT22;1797;51.844;7.684;2023-02-01T02:28:21;5.40;99.90
3566;DHT22;1797;51.844;7.684;2023-02-01T02:37:00;5.40;99.90
3566;DHT22;1797;51.844;7.684;2023-02-01T02:39:58;5.40;99.90
3566;DHT22;1797;51.844;7.684;2023-02-01T02:42:41;5.40;99.90
3566;DHT22;1797;51.844;7.684;2023-02-01T02:51:07;5.30;99.90
3566;DHT22;1797;51.844;7.684;2023-02-01T02:56:43;5.30;99.90
3566;DHT22;1797;51.844;7.684;2023-02-01T02:59:28;5.20;99.90
3566;DHT22;1797;51.844;7.684;2023-02-01T03:02:15;5.20;99.90
3566;DHT22;1797;51.844;7.684;2023-02-01T03:04:59;5.20;99.90
3566;DHT22;1797;51.844;7.684;2023-02-01T03:10:27;5.20;99.90
3566;DHT22;1797;51.844;7.684;2023-02-01T03:12:55;5.30;99.90
3566;DHT22;1797;51.844;7.684;2023-02-01T03:15:41;5.40;99.90
3566;DHT22;1797;51.844;7.684;2023-02-01T03:21:12;5.30;99.90
3566;DHT22;1797;51.844;7.684;2023-02-01T03:23:39;5.40;99.90
3566;DHT22;1797;51.844;7.684;2023-02-01T03:26:07;5.40;99.90
3566;DHT22;1797;51.844;7.684;2023-02-01T03:28:35;5.40;99.90
3566;DHT22;1797;51.844;7.684;2023-02-01T03:31:02;5.40;99.90
3566;DHT22;1797;51.844;7.684;2023-02-01T03:33:28;5.50;99.90
3566;DHT22;1797;51.844;7.684;2023-02-01T03:36:15;5.50;99.90
3566;DHT22;1797;51.844;7.684;2023-02-01T03:41:53;5.50;99.90
3566;DHT22;1797;51.844;7.684;2023-02-01T03:46:59;5.50;99.90
3566;DHT22;1797;51.844;7.684;2023-02-01T03:49:44;5.50;99.90
3566;DHT22;1797;51.844;7.684;2023-02-01T03:52:16;5.60;99.90
3566;DHT22;1797;51.844;7.684;2023-02-01T03:54:44;5.60;99.90
3566;DHT22;1797;51.844;7.684;2023-02-01T03:57:14;5.50;99.90
3566;DHT22;1797;51.844;7.684;2023-02-01T03:59:44;5.50;99.90
3566;DHT22;1797;51.844;7.684;2023-02-01T04:02:10;5.50;99.90
3566;DHT22;1797;51.844;7.684;2023-02-01T04:04:36;5.50;99.90
3566;DHT22;1797;51.844;7.684;2023-02-01T04:07:02;5.50;99.90
3566;DHT22;1797;51.844;7.684;2023-02-01T04:09:28;5.60;99.90
3566;DHT22;1797;51.844;7.684;2023-02-01T04:11:54;5.60;99.90
3566;DHT22;1797;51.844;7.684;2023-02-01T04:14:20;5.60;99.90
3566;DHT22;1797;51.844;7.684;2023-02-01T04:16:45;5.60;99.90
3566;DHT22;1797;51.844;7.684;2023-02-01T04:19:11;5.60;99.90
3566;DHT22;1797;51.844;7.684;2023-02-01T04:21:37;5.60;99.90
3566;DHT22;1797;51.844;7.684;2023-02-01T04:24:03;5.60;99.90
3566;DHT22;1797;51.844;7.684;2023-02-01T04:26:28;5.60;99.90
3566;DHT22;1797;51.844;7.684;2023-02-01T04:28:54;5.60;99.90
3566;DHT22;1797;51.844;7.684;2023-02-01T04:31:20;5.60;99.90
3566;DHT22;1797;51.844;7.684;2023-02-01T04:33:51;5.60;99.90
3566;DHT22;1797;51.844;7.684;2023-02-01T04:36:18;5.60;99.90
3566;DHT22;1797;51.844;7.684;2023-02-01T04:38:47;5.60;99.90
3566;DHT22;1797;51.844;7.684;2023-02-01T04:41:12;5.60;99.90
3566;DHT22;1797;51.844;7.684;2023-02-01T04:43:38;5.60;99.90
3566;DHT22;1797;51.844;7.684;2023-02-01T04:46:04;5.60;99.90
3566;DHT22;1797;51.844;7.684;2023-02-01T04:48:30;5.60;99.90
3566;DHT22;1797;51.844;7.684;2023-02-01T04:50:56;5.60;99.90
3566;DHT22;1797;51.844;7.684;2023-02-01T04:53:21;5.50;99.90
3566;DHT22;1797;51.844;7.684;2023-02-01T04:55:48;5.60;99.90
3566;DHT22;1797;51.844;7.684;2023-02-01T04:58:13;5.60;99.90
3566;DHT22;1797;51.844;7.684;2023-02-01T05:00:39;5.60;99.90
3566;DHT22;1797;51.844;7.684;2023-02-01T05:03:05;5.50;99.90
3566;DHT22;1797;51.844;7.684;2023-02-01T05:05:31;5.50;99.90
3566;DHT22;1797;51.844;7.684;2023-02-01T05:07:56;5.50;99.90
3566;DHT22;1797;51.844;7.684;2023-02-01T05:10:22;5.50;99.90
3566;DHT22;1797;51.844;7.684;2023-02-01T05:12:47;5.50;99.90
3566;DHT22;1797;51.844;7.684;2023-02-01T05:15:32;5.50;99.90
3566;DHT22;1797;51.844;7.684;2023-02-01T05:17:57;5.50;99.90
3566;DHT22;1797;51.844;7.684;2023-02-01T05:20:24;5.50;99.90
3566;DHT22;1797;51.844;7.684;2023-02-01T05:22:50;5.50;99.90
3566;DHT22;1797;51.844;7.684;2023-02-01T05:25:16;5.50;99.90
3566;DHT22;1797;51.844;7.684;2023-02-01T05:27:41;5.50;99.90
3566;DHT22;1797;51.844;7.684;2023-02-01T05:30:08;5.60;99.90
3566;DHT22;1797;51.844;7.684;2023-02-01T05:32:34;5.50;99.90
3566;DHT22;1797;51.844;7.684;2023-02-01T05:34:59;5.50;99.90
3566;DHT22;1797;51.844;7.684;2023-02-01T05:37:25;5.50;99.90
3566;DHT22;1797;51.844;7.684;2023-02-01T05:39:51;5.50;99.90
3566;DHT22;1797;51.844;7.684;2023-02-01T05:42:16;5.50;99.90
3566;DHT22;1797;51.844;7.684;2023-02-01T05:44:42;5.50;99.90
3566;DHT22;1797;51.844;7.684;2023-02-01T05:47:08;5.50;99.90
3566;DHT22;1797;51.844;7.684;2023-02-01T05:49:33;5.50;99.90
3566;DHT22;1797;51.844;7.684;2023-02-01T05:51:59;5.50;99.90
3566;DHT22;1797;51.844;7.684;2023-02-01T05:54:25;5.50;99.90
3566;DHT22;1797;51.844;7.684;2023-02-01T05:56:50;5.50;99.90
3566;DHT22;1797;51.844;7.684;2023-02-01T05:59:16;5.50;99.90
3566;DHT22;1797;51.844;7.684;2023-02-01T06:01:41;5.40;99.90
3566;DHT22;1797;51.844;7.684;2023-02-01T06:04:07;5.50;99.90
3566;DHT22;1797;51.844;7.684;2023-02-01T06:06:33;5.40;99.90
3566;DHT22;1797;51.844;7.684;2023-02-01T06:08:59;5.40;99.90
3566;DHT22;1797;51.844;7.684;2023-02-01T06:11:25;5.40;99.90
3566;DHT22;1797;51.844;7.684;2023-02-01T06:13:51;5.40;99.90
3566;DHT22;1797;51.844;7.684;2023-02-01T06:16:17;5.40;99.90
3566;DHT22;1797;51.844;7.684;2023-02-01T06:18:42;5.40;99.90
3566;DHT22;1797;51.844;7.684;2023-02-01T06:21:08;5.40;99.90
3566;DHT22;1797;51.844;7.684;2023-02-01T06:23:34;5.40;99.90
3566;DHT22;1797;51.844;7.684;2023-02-01T06:26:05;5.40;99.90
3566;DHT22;1797;51.844;7.684;2023-02-01T06:28:33;5.40;99.90
3566;DHT22;1797;51.844;7.684;2023-02-01T06:31:03;5.40;99.90
3566;DHT22;1797;51.844;7.684;2023-02-01T06:33:32;5.40;99.90
3566;DHT22;1797;51.844;7.684;2023-02-01T06:35:59;5.40;99.90
3566;DHT22;1797;51.844;7.684;2023-02-01T06:38:25;5.40;99.90
3566;DHT22;1797;51.844;7.684;2023-02-01T06:40:56;5.40;99.90
3566;DHT22;1797;51.844;7.684;2023-02-01T06:43:23;5.40;99.90
3566;DHT22;1797;51.844;7.684;2023-02-01T06:45:49;5.40;99.90
3566;DHT22;1797;51.844;7.684;2023-02-01T06:48:15;5.40;99.90
3566;DHT22;1797;51.844;7.684;2023-02-01T06:50:40;5.40;99.90
3566;DHT22;1797;51.844;7.684;2023-02-01T06:53:06;5.40;99.90
3566;DHT22;1797;51.844;7.684;2023-02-01T06:55:31;5.40;99.90
3566;DHT22;1797;51.844;7.684;2023-02-01T06:57:57;5.40;99.90
3566;DHT22;1797;51.844;7.684;2023-02-01T07:00:23;5.50;99.90
3566;DHT22;1797;51.844;7.684;2023-02-01T07:02:49;5.50;99.90
3566;DHT22;1797;51.844;7.684;2023-02-01T07:05:15;5.50;99.90
3566;DHT22;1797;51.844;7.684;2023-02-01T07:07:41;5.50;99.90
3566;DHT22;1797;51.844;7.684;2023-02-01T07:10:07;5.50;99.90
3566;DHT22;1797;51.844;7.684;2023-02-01T07:12:32;5.50;99.90
3566;DHT22;1797;51.844;7.684;2023-02-01T07:14:58;5.50;99.90
3566;DHT22;1797;51.844;7.684;2023-02-01T07:17:24;5.50;99.90
3566;DHT22;1797;51.844;7.684;2023-02-01T07:19:49;5.50;99.90
3566;DHT22;1797;51.844;7.684;2023-02-01T07:22:18;5.50;99.90
3566;DHT22;1797;51.844;7.684;2023-02-01T07:24:44;5.50;99.90
3566;DHT22;1797;51.844;7.684;2023-02-01T07:27:09;5.50;99.90
3566;DHT22;1797;51.844;7.684;2023-02-01T07:29:35;5.50;99.90
3566;DHT22;1797;51.844;7.684;2023-02-01T07:32:00;5.60;99.90
3566;DHT22;1797;51.844;7.684;2023-02-01T07:34:28;5.60;99.90
3566;DHT22;1797;51.844;7.684;2023-02-01T07:36:53;5.60;99.90
3566;DHT22;1797;51.844;7.684;2023-02-01T07:39:19;5.60;99.90
3566;DHT22;1797;51.844;7.684;2023-02-01T07:41:46;5.60;99.90
3566;DHT22;1797;51.844;7.684;2023-02-01T07:44:11;5.70;99.90
3566;DHT22;1797;51.844;7.684;2023-02-01T07:46:37;5.70;99.90
3566;DHT22;1797;51.844;7.684;2023-02-01T07:49:04;5.70;99.90
3566;DHT22;1797;51.844;7.684;2023-02-01T07:51:30;5.70;99.90
3566;DHT22;1797;51.844;7.684;2023-02-01T07:53:56;5.70;99.90
3566;DHT22;1797;51.844;7.684;2023-02-01T07:56:21;5.80;99.90
3566;DHT22;1797;51.844;7.684;2023-02-01T07:58:53;5.80;99.90
3566;DHT22;1797;51.844;7.684;2023-02-01T08:01:22;5.80;99.90
3566;DHT22;1797;51.844;7.684;2023-02-01T08:03:58;5.80;99.90
3566;DHT22;1797;51.844;7.684;2023-02-01T08:06:28;5.80;99.90
3566;DHT22;1797;51.844;7.684;2023-02-01T08:08:54;5.80;99.90
3566;DHT22;1797;51.844;7.684;2023-02-01T08:11:21;5.80;99.90
3566;DHT22;1797;51.844;7.684;2023-02-01T08:13:47;5.80;99.90
3566;DHT22;1797;51.844;7.684;2023-02-01T08:16:14;5.80;99.90
3566;DHT22;1797;51.844;7.684;2023-02-01T08:18:40;5.90;99.90
3566;DHT22;1797;51.844;7.684;2023-02-01T08:21:19;5.80;99.90
3566;DHT22;1797;51.844;7.684;2023-02-01T08:23:45;5.90;99.90
3566;DHT22;1797;51.844;7.684;2023-02-01T08:26:14;5.90;99.90
3566;DHT22;1797;51.844;7.684;2023-02-01T08:28:42;5.90;99.90
3566;DHT22;1797;51.844;7.684;2023-02-01T08:31:10;5.90;99.90
3566;DHT22;1797;51.844;7.684;2023-02-01T08:33:36;5.90;99.90
3566;DHT22;1797;51.844;7.684;2023-02-01T08:36:04;6.00;99.90
3566;DHT22;1797;51.844;7.684;2023-02-01T08:38:31;6.00;99.90
3566;DHT22;1797;51.844;7.684;2023-02-01T08:40:56;6.00;99.90
3566;DHT22;1797;51.844;7.684;2023-02-01T08:43:22;6.00;99.90
3566;DHT22;1797;51.844;7.684;2023-02-01T08:45:48;6.10;99.90
3566;DHT22;1797;51.844;7.684;2023-02-01T08:48:14;6.10;99.90
3566;DHT22;1797;51.844;7.684;2023-02-01T08:50:40;6.20;99.90
3566;DHT22;1797;51.844;7.684;2023-02-01T08:53:05;6.20;99.90
3566;DHT22;1797;51.844;7.684;2023-02-01T08:55:31;6.20;99.90
3566;DHT22;1797;51.844;7.684;2023-02-01T08:57:57;6.20;99.90
3566;DHT22;1797;51.844;7.684;2023-02-01T09:00:22;6.20;99.90
3566;DHT22;1797;51.844;7.684;2023-02-01T09:02:48;6.20;99.90
3566;DHT22;1797;51.844;7.684;2023-02-01T09:05:14;6.20;99.90
3566;DHT22;1797;51.844;7.684;2023-02-01T09:07:42;6.20;99.90
3566;DHT22;1797;51.844;7.684;2023-02-01T09:10:08;6.20;99.90
3566;DHT22;1797;51.844;7.684;2023-02-01T09:12:35;6.20;99.90
3566;DHT22;1797;51.844;7.684;2023-02-01T09:15:00;6.20;99.90
3566;DHT22;1797;51.844;7.684;2023-02-01T09:17:27;6.20;99.90
3566;DHT22;1797;51.844;7.684;2023-02-01T09:19:53;6.20;99.90
3566;DHT22;1797;51.844;7.684;2023-02-01T09:22:18;6.30;99.90
3566;DHT22;1797;51.844;7.684;2023-02-01T09:24:44;6.30;99.90
3566;DHT22;1797;51.844;7.684;2023-02-01T09:27:10;6.30;99.90
3566;DHT22;1797;51.844;7.684;2023-02-01T09:29:35;6.30;99.90
3566;DHT22;1797;51.844;7.684;2023-02-01T09:32:01;6.40;99.90
3566;DHT22;1797;51.844;7.684;2023-02-01T09:34:27;6.40;99.90
3566;DHT22;1797;51.844;7.684;2023-02-01T09:36:52;6.50;99.90
3566;DHT22;1797;51.844;7.684;2023-02-01T09:39:19;6.50;99.90
3566;DHT22;1797;51.844;7.684;2023-02-01T09:44:42;6.60;99.90
3566;DHT22;1797;51.844;7.684;2023-02-01T09:47:15;6.60;99.90
3566;DHT22;1797;51.844;7.684;2023-02-01T09:50:11;6.60;99.90
3566;DHT22;1797;51.844;7.684;2023-02-01T09:53:06;6.60;99.90
3566;DHT22;1797;51.844;7.684;2023-02-01T09:55:48;6.70;99.90
3566;DHT22;1797;51.844;7.684;2023-02-01T09:58:24;6.70;99.90
3566;DHT22;1797;51.844;7.684;2023-02-01T10:00:57;6.80;99.90
3566;DHT22;1797;51.844;7.684;2023-02-01T10:03:26;6.90;99.90
3566;DHT22;1797;51.844;7.684;2023-02-01T10:14:34;6.90;99.90
3566;DHT22;1797;51.844;7.684;2023-02-01T10:25:55;6.90;99.90
3566;DHT22;1797;51.844;7.684;2023-02-01T10:28:22;6.90;99.90
3566;DHT22;1797;51.844;7.684;2023-02-01T10:30:54;6.90;99.90
3566;DHT22;1797;51.844;7.684;2023-02-01T10:33:30;6.90;99.90
3566;DHT22;1797;51.844;7.684;2023-02-01T10:36:08;6.90;99.90
3566;DHT22;1797;51.844;7.684;2023-02-01T10:38:36;7.00;99.90
3566;DHT22;1797;51.844;7.684;2023-02-01T10:41:10;7.00;99.90
3566;DHT22;1797;51.844;7.684;2023-02-01T10:43:37;6.90;99.90
3566;DHT22;1797;51.844;7.684;2023-02-01T10:46:05;6.80;99.90
3566;DHT22;1797;51.844;7.684;2023-02-01T10:48:32;6.80;99.90
3566;DHT22;1797;51.844;7.684;2023-02-01T10:51:00;6.90;99.90
3566;DHT22;1797;51.844;7.684;2023-02-01T10:53:57;6.90;99.90
3566;DHT22;1797;51.844;7.684;2023-02-01T10:56:25;7.00;99.90
3566;DHT22;1797;51.844;7.684;2023-02-01T10:59:00;7.00;99.90
3566;DHT22;1797;51.844;7.684;2023-02-01T11:01:35;7.00;99.90
3566;DHT22;1797;51.844;7.684;2023-02-01T11:04:04;7.00;99.90
3566;DHT22;1797;51.844;7.684;2023-02-01T11:06:34;7.00;99.90
3566;DHT22;1797;51.844;7.684;2023-02-01T11:14:25;7.00;99.90
3566;DHT22;1797;51.844;7.684;2023-02-01T11:16:59;7.00;99.90
3566;DHT22;1797;51.844;7.684;2023-02-01T11:19:26;6.90;99.90
3566;DHT22;1797;51.844;7.684;2023-02-01T11:21:53;7.00;99.90
3566;DHT22;1797;51.844;7.684;2023-02-01T11:26:58;7.10;99.90
3566;DHT22;1797;51.844;7.684;2023-02-01T11:29:35;7.10;99.90
3566;DHT22;1797;51.844;7.684;2023-02-01T11:32:02;7.10;99.90
3566;DHT22;1797;51.844;7.684;2023-02-01T11:34:37;7.00;99.90
3566;DHT22;1797;51.844;7.684;2023-02-01T11:37:03;7.00;99.90
3566;DHT22;1797;51.844;7.684;2023-02-01T11:39:31;7.00;99.90
3566;DHT22;1797;51.844;7.684;2023-02-01T11:42:16;6.80;99.90
3566;DHT22;1797;51.844;7.684;2023-02-01T11:44:44;6.80;99.90
3566;DHT22;1797;51.844;7.684;2023-02-01T11:47:26;6.70;99.90
3566;DHT22;1797;51.844;7.684;2023-02-01T11:50:03;6.60;99.90
3566;DHT22;1797;51.844;7.684;2023-02-01T11:52:38;6.60;99.90
3566;DHT22;1797;51.844;7.684;2023-02-01T11:57:56;6.40;99.90
3566;DHT22;1797;51.844;7.684;2023-02-01T12:00:32;6.30;99.90
3566;DHT22;1797;51.844;7.684;2023-02-01T12:06:51;6.10;99.90
3566;DHT22;1797;51.844;7.684;2023-02-01T12:12:03;6.00;99.90
3566;DHT22;1797;51.844;7.684;2023-02-01T12:32:15;5.90;99.90
3566;DHT22;1797;51.844;7.684;2023-02-01T12:34:50;5.80;99.90
3566;DHT22;1797;51.844;7.684;2023-02-01T12:38:02;5.80;99.90
3566;DHT22;1797;51.844;7.684;2023-02-01T12:41:02;5.80;99.90
3566;DHT22;1797;51.844;7.684;2023-02-01T12:43:45;5.80;99.90
3566;DHT22;1797;51.844;7.684;2023-02-01T12:48:58;5.90;99.90
3566;DHT22;1797;51.844;7.684;2023-02-01T12:51:33;5.90;99.90
3566;DHT22;1797;51.844;7.684;2023-02-01T12:57:03;6.00;99.90
3566;DHT22;1797;51.844;7.684;2023-02-01T13:02:41;5.90;99.90
3566;DHT22;1797;51.844;7.684;2023-02-01T13:05:29;5.90;99.90
3566;DHT22;1797;51.844;7.684;2023-02-01T13:08:10;5.90;99.90
3566;DHT22;1797;51.844;7.684;2023-02-01T13:10:46;5.90;99.90
3566;DHT22;1797;51.844;7.684;2023-02-01T13:13:32;5.90;99.90
3566;DHT22;1797;51.844;7.684;2023-02-01T13:16:16;5.90;99.90
3566;DHT22;1797;51.844;7.684;2023-02-01T13:18:46;6.00;99.90
3566;DHT22;1797;51.844;7.684;2023-02-01T13:21:17;6.00;99.90
3566;DHT22;1797;51.844;7.684;2023-02-01T13:23:46;5.90;99.90
3566;DHT22;1797;51.844;7.684;2023-02-01T13:26:13;6.00;99.90
3566;DHT22;1797;51.844;7.684;2023-02-01T13:31:49;5.90;99.90
3566;DHT22;1797;51.844;7.684;2023-02-01T13:42:33;6.10;99.90
3566;DHT22;1797;51.844;7.684;2023-02-01T13:45:19;6.20;99.90
3566;DHT22;1797;51.844;7.684;2023-02-01T13:47:47;6.20;99.90
3566;DHT22;1797;51.844;7.684;2023-02-01T13:52:57;6.40;1.00
3566;DHT22;1797;51.844;7.684;2023-02-01T13:55:30;6.50;1.00
3566;DHT22;1797;51.844;7.684;2023-02-01T14:00:38;6.70;99.90
3566;DHT22;1797;51.844;7.684;2023-02-01T14:03:16;6.80;99.90
3566;DHT22;1797;51.844;7.684;2023-02-01T14:08:23;6.90;99.90
3566;DHT22;1797;51.844;7.684;2023-02-01T14:10:57;6.90;79.40
3566;DHT22;1797;51.844;7.684;2023-02-01T14:23:45;7.00;1.00
3566;DHT22;1797;51.844;7.684;2023-02-01T14:26:20;7.00;1.00
3566;DHT22;1797;51.844;7.684;2023-02-01T14:29:00;7.00;99.90
3566;DHT22;1797;51.844;7.684;2023-02-01T14:31:59;7.00;99.90
3566;DHT22;1797;51.844;7.684;2023-02-01T14:37:06;7.00;99.90
3566;DHT22;1797;51.844;7.684;2023-02-01T14:39:46;7.00;99.90
3566;DHT22;1797;51.844;7.684;2023-02-01T14:42:25;6.90;99.90
3566;DHT22;1797;51.844;7.684;2023-02-01T14:44:53;6.90;99.90
3566;DHT22;1797;51.844;7.684;2023-02-01T14:52:49;6.80;99.90
3566;DHT22;1797;51.844;7.684;2023-02-01T14:55:24;6.80;99.90
3566;DHT22;1797;51.844;7.684;2023-02-01T14:57:53;6.80;99.90
3566;DHT22;1797;51.844;7.684;2023-02-01T15:00:29;6.80;99.90
3566;DHT22;1797;51.844;7.684;2023-02-01T15:05:40;6.70;99.90
3566;DHT22;1797;51.844;7.684;2023-02-01T15:08:23;6.70;99.90
3566;DHT22;1797;51.844;7.684;2023-02-01T15:10:51;6.60;99.90
3566;DHT22;1797;51.844;7.684;2023-02-01T15:13:21;6.60;99.90
3566;DHT22;1797;51.844;7.684;2023-02-01T15:16:01;6.60;99.90
3566;DHT22;1797;51.844;7.684;2023-02-01T15:18:27;6.60;99.90
3566;DHT22;1797;51.844;7.684;2023-02-01T15:21:00;6.60;99.90
3566;DHT22;1797;51.844;7.684;2023-02-01T15:23:26;6.60;1.00
3566;DHT22;1797;51.844;7.684;2023-02-01T15:25:53;6.70;1.00
3566;DHT22;1797;51.844;7.684;2023-02-01T15:28:19;6.60;1.00
3566;DHT22;1797;51.844;7.684;2023-02-01T15:31:11;6.60;1.00
3566;DHT22;1797;51.844;7.684;2023-02-01T15:33:37;6.60;99.90
3566;DHT22;1797;51.844;7.684;2023-02-01T15:38:42;6.60;99.90
3566;DHT22;1797;51.844;7.684;2023-02-01T15:41:34;6.70;99.90
3566;DHT22;1797;51.844;7.684;2023-02-01T15:46:33;6.60;1.00
3566;DHT22;1797;51.844;7.684;2023-02-01T15:49:01;6.60;99.90
3566;DHT22;1797;51.844;7.684;2023-02-01T15:51:28;6.60;99.90
3566;DHT22;1797;51.844;7.684;2023-02-01T15:54:06;6.60;21.70
3566;DHT22;1797;51.844;7.684;2023-02-01T15:56:38;6.60;1.00
3566;DHT22;1797;51.844;7.684;2023-02-01T15:59:16;6.60;1.00
3566;DHT22;1797;51.844;7.684;2023-02-01T16:01:42;6.60;99.90
3566;DHT22;1797;51.844;7.684;2023-02-01T16:04:20;6.60;99.90
3566;DHT22;1797;51.844;7.684;2023-02-01T16:06:55;6.60;99.90
3566;DHT22;1797;51.844;7.684;2023-02-01T16:09:23;6.60;1.00
3566;DHT22;1797;51.844;7.684;2023-02-01T16:11:58;6.60;99.90
3566;DHT22;1797;51.844;7.684;2023-02-01T16:14:24;6.70;99.90
3566;DHT22;1797;51.844;7.684;2023-02-01T16:16:51;6.70;99.90
3566;DHT22;1797;51.844;7.684;2023-02-01T16:19:17;6.70;99.90
3566;DHT22;1797;51.844;7.684;2023-02-01T16:21:44;6.70;1.00
3566;DHT22;1797;51.844;7.684;2023-02-01T16:24:09;6.70;99.90
3566;DHT22;1797;51.844;7.684;2023-02-01T16:26:35;6.70;99.90
3566;DHT22;1797;51.844;7.684;2023-02-01T16:29:01;6.70;99.90
3566;DHT22;1797;51.844;7.684;2023-02-01T16:31:34;6.60;99.90
3566;DHT22;1797;51.844;7.684;2023-02-01T16:34:00;6.60;99.90
3566;DHT22;1797;51.844;7.684;2023-02-01T16:36:26;6.60;99.90
3566;DHT22;1797;51.844;7.684;2023-02-01T16:38:53;6.70;99.90
3566;DHT22;1797;51.844;7.684;2023-02-01T16:41:22;6.70;99.90
3566;DHT22;1797;51.844;7.684;2023-02-01T16:43:52;6.70;99.90
3566;DHT22;1797;51.844;7.684;2023-02-01T16:46:21;6.60;99.90
3566;DHT22;1797;51.844;7.684;2023-02-01T16:48:53;6.60;99.90
3566;DHT22;1797;51.844;7.684;2023-02-01T16:51:20;6.60;99.90
3566;DHT22;1797;51.844;7.684;2023-02-01T16:53:46;6.50;1.00
3566;DHT22;1797;51.844;7.684;2023-02-01T16:56:23;6.40;1.00
3566;DHT22;1797;51.844;7.684;2023-02-01T16:58:50;6.40;99.90
3566;DHT22;1797;51.844;7.684;2023-02-01T17:01:18;6.30;99.90
3566;DHT22;1797;51.844;7.684;2023-02-01T17:03:44;6.20;99.90
3566;DHT22;1797;51.844;7.684;2023-02-01T17:06:13;6.20;99.90
3566;DHT22;1797;51.844;7.684;2023-02-01T17:08:42;6.20;99.90
3566;DHT22;1797;51.844;7.684;2023-02-01T17:11:11;6.10;99.90
3566;DHT22;1797;51.844;7.684;2023-02-01T17:13:37;6.10;99.90
3566;DHT22;1797;51.844;7.684;2023-02-01T17:16:10;6.00;99.90
3566;DHT22;1797;51.844;7.684;2023-02-01T17:18:38;6.00;99.90
3566;DHT22;1797;51.844;7.684;2023-02-01T17:21:04;5.90;99.90
3566;DHT22;1797;51.844;7.684;2023-02-01T17:23:32;5.80;99.90
3566;DHT22;1797;51.844;7.684;2023-02-01T17:25:58;5.80;99.90
3566;DHT22;1797;51.844;7.684;2023-02-01T17:28:24;5.70;99.90
3566;DHT22;1797;51.844;7.684;2023-02-01T17:30:50;5.60;99.90
3566;DHT22;1797;51.844;7.684;2023-02-01T17:33:27;5.60;99.90
3566;DHT22;1797;51.844;7.684;2023-02-01T17:35:55;5.60;99.90
3566;DHT22;1797;51.844;7.684;2023-02-01T17:38:21;5.50;99.90
3566;DHT22;1797;51.844;7.684;2023-02-01T17:40:47;5.50;99.90
3566;DHT22;1797;51.844;7.684;2023-02-01T17:43:14;5.60;99.90
3566;DHT22;1797;51.844;7.684;2023-02-01T17:45:45;5.60;99.90
3566;DHT22;1797;51.844;7.684;2023-02-01T17:48:15;5.60;99.90
3566;DHT22;1797;51.844;7.684;2023-02-01T17:50:41;5.60;99.90
3566;DHT22;1797;51.844;7.684;2023-02-01T17:53:08;5.50;99.90
3566;DHT22;1797;51.844;7.684;2023-02-01T17:55:39;5.50;99.90
3566;DHT22;1797;51.844;7.684;2023-02-01T17:58:04;5.50;99.90
3566;DHT22;1797;51.844;7.684;2023-02-01T18:00:30;5.60;99.90
3566;DHT22;1797;51.844;7.684;2023-02-01T18:02:56;5.60;99.90
3566;DHT22;1797;51.844;7.684;2023-02-01T18:07:50;5.50;99.90
3566;DHT22;1797;51.844;7.684;2023-02-01T18:10:15;5.50;99.90
3566;DHT22;1797;51.844;7.684;2023-02-01T18:12:41;5.50;99.90
3566;DHT22;1797;51.844;7.684;2023-02-01T18:15:19;5.60;99.90
3566;DHT22;1797;51.844;7.684;2023-02-01T18:17:45;5.60;99.90
3566;DHT22;1797;51.844;7.684;2023-02-01T18:20:16;5.60;99.90
3566;DHT22;1797;51.844;7.684;2023-02-01T18:22:43;5.50;99.90
3566;DHT22;1797;51.844;7.684;2023-02-01T18:25:28;5.50;99.90
3566;DHT22;1797;51.844;7.684;2023-02-01T18:27:56;5.50;99.90
3566;DHT22;1797;51.844;7.684;2023-02-01T18:30:30;5.50;99.90
3566;DHT22;1797;51.844;7.684;2023-02-01T18:32:57;5.50;99.90
3566;DHT22;1797;51.844;7.684;2023-02-01T18:35:25;5.40;99.90
3566;DHT22;1797;51.844;7.684;2023-02-01T18:37:51;5.40;99.90
3566;DHT22;1797;51.844;7.684;2023-02-01T18:40:20;5.40;99.90
3566;DHT22;1797;51.844;7.684;2023-02-01T18:42:46;5.40;99.90
3566;DHT22;1797;51.844;7.684;2023-02-01T18:45:34;5.50;99.90
3566;DHT22;1797;51.844;7.684;2023-02-01T18:48:00;5.40;99.90
3566;DHT22;1797;51.844;7.684;2023-02-01T18:50:28;5.50;99.90
3566;DHT22;1797;51.844;7.684;2023-02-01T18:52:55;5.50;99.90
3566;DHT22;1797;51.844;7.684;2023-02-01T18:55:23;5.50;99.90
3566;DHT22;1797;51.844;7.684;2023-02-01T18:57:49;5.50;99.90
3566;DHT22;1797;51.844;7.684;2023-02-01T19:00:16;5.60;99.90
3566;DHT22;1797;51.844;7.684;2023-02-01T19:02:42;5.60;99.90
3566;DHT22;1797;51.844;7.684;2023-02-01T19:05:09;5.50;99.90
3566;DHT22;1797;51.844;7.684;2023-02-01T19:07:36;5.40;99.90
3566;DHT22;1797;51.844;7.684;2023-02-01T19:10:03;5.40;99.90
3566;DHT22;1797;51.844;7.684;2023-02-01T19:12:31;5.30;99.90
3566;DHT22;1797;51.844;7.684;2023-02-01T19:14:58;5.30;99.90